sensor_id;sensor_type;location;lat;lon;timestamp;P1;durP1;ratioP1;P2;durP2;ratioP2
22318;SDS011;11327;52.334;9.506;2023-04-24T00:03:19;1.42;;;0.78;;
22318;SDS011;11327;52.334;9.506;2023-04-24T00:06:41;1.32;;;0.80;;
22318;SDS011;11327;52.334;9.506;2023-04-24T00:10:03;0.70;;;0.70;;
22318;SDS011;11327;52.334;9.506;2023-04-24T00:13:24;2.37;;;0.90;;
22318;SDS011;11327;52.334;9.506;2023-04-24T00:16:44;1.00;;;0.90;;
22318;SDS011;11327;52.334;9.506;2023-04-24T00:20:05;1.60;;;0.80;;
22318;SDS011;11327;52.334;9.506;2023-04-24T00:23:27;1.20;;;0.90;;
22318;SDS011;11327;52.334;9.506;2023-04-24T00:26:48;2.35;;;0.90;;
22318;SDS011;11327;52.334;9.506;2023-04-24T00:30:09;1.22;;;1.00;;
22318;SDS011;11327;52.334;9.506;2023-04-24T00:33:30;1.17;;;0.70;;
22318;SDS011;11327;52.334;9.506;2023-04-24T00:36:51;1.10;;;0.80;;
22318;SDS011;11327;52.334;9.506;2023-04-24T00:40:12;1.20;;;0.90;;
22318;SDS011;11327;52.334;9.506;2023-04-24T00:43:33;1.92;;;1.05;;
22318;SDS011;11327;52.334;9.506;2023-04-24T00:46:54;1.30;;;1.10;;
22318;SDS011;11327;52.334;9.506;2023-04-24T00:50:15;1.35;;;0.85;;
22318;SDS011;11327;52.334;9.506;2023-04-24T00:53:36;1.12;;;0.93;;
22318;SDS011;11327;52.334;9.506;2023-04-24T00:56:57;2.55;;;1.00;;
22318;SDS011;11327;52.334;9.506;2023-04-24T01:00:18;1.15;;;0.80;;
22318;SDS011;11327;52.334;9.506;2023-04-24T01:03:39;1.52;;;0.90;;
22318;SDS011;11327;52.334;9.506;2023-04-24T01:07:00;1.05;;;0.90;;
22318;SDS011;11327;52.334;9.506;2023-04-24T01:10:21;1.00;;;0.80;;
22318;SDS011;11327;52.334;9.506;2023-04-24T01:13:44;2.17;;;0.80;;
22318;SDS011;11327;52.334;9.506;2023-04-24T01:17:06;1.20;;;1.02;;
22318;SDS011;11327;52.334;9.506;2023-04-24T01:20:27;1.77;;;1.10;;
22318;SDS011;11327;52.334;9.506;2023-04-24T01:23:50;1.60;;;1.20;;
22318;SDS011;11327;52.334;9.506;2023-04-24T01:27:11;1.87;;;1.07;;
22318;SDS011;11327;52.334;9.506;2023-04-24T01:30:32;2.25;;;1.30;;
22318;SDS011;11327;52.334;9.506;2023-04-24T01:33:53;1.00;;;0.90;;
22318;SDS011;11327;52.334;9.506;2023-04-24T01:37:15;0.88;;;0.80;;
22318;SDS011;11327;52.334;9.506;2023-04-24T01:40:37;2.67;;;0.98;;
22318;SDS011;11327;52.334;9.506;2023-04-24T01:43:58;1.10;;;0.95;;
22318;SDS011;11327;52.334;9.506;2023-04-24T01:47:19;1.50;;;0.93;;
22318;SDS011;11327;52.334;9.506;2023-04-24T01:50:39;0.88;;;0.80;;
22318;SDS011;11327;52.334;9.506;2023-04-24T01:54:00;1.05;;;0.95;;
22318;SDS011;11327;52.334;9.506;2023-04-24T01:57:21;1.12;;;0.80;;
22318;SDS011;11327;52.334;9.506;2023-04-24T02:00:42;1.00;;;0.90;;
22318;SDS011;11327;52.334;9.506;2023-04-24T02:04:04;1.40;;;0.85;;
22318;SDS011;11327;52.334;9.506;2023-04-24T02:07:25;1.00;;;0.80;;
22318;SDS011;11327;52.334;9.506;2023-04-24T02:10:46;1.17;;;0.80;;
22318;SDS011;11327;52.334;9.506;2023-04-24T02:14:07;1.50;;;0.90;;
22318;SDS011;11327;52.334;9.506;2023-04-24T02:17:28;1.20;;;0.90;;
22318;SDS011;11327;52.334;9.506;2023-04-24T02:20:48;1.32;;;0.82;;
22318;SDS011;11327;52.334;9.506;2023-04-24T02:24:09;0.80;;;0.80;;
22318;SDS011;11327;52.334;9.506;2023-04-24T02:27:30;1.37;;;0.75;;
22318;SDS011;11327;52.334;9.506;2023-04-24T02:30:51;1.00;;;0.90;;
22318;SDS011;11327;52.334;9.506;2023-04-24T02:34:11;0.93;;;0.80;;
22318;SDS011;11327;52.334;9.506;2023-04-24T02:37:32;1.12;;;0.90;;
22318;SDS011;11327;52.334;9.506;2023-04-24T02:40:53;0.90;;;0.72;;
22318;SDS011;11327;52.334;9.506;2023-04-24T02:44:14;2.12;;;1.17;;
22318;SDS011;11327;52.334;9.506;2023-04-24T02:47:35;2.45;;;0.80;;
22318;SDS011;11327;52.334;9.506;2023-04-24T02:50:55;1.05;;;0.80;;
22318;SDS011;11327;52.334;9.506;2023-04-24T02:54:17;2.08;;;0.90;;
22318;SDS011;11327;52.334;9.506;2023-04-24T02:57:38;1.95;;;1.27;;
22318;SDS011;11327;52.334;9.506;2023-04-24T03:00:59;1.30;;;0.90;;
22318;SDS011;11327;52.334;9.506;2023-04-24T03:04:20;1.05;;;0.82;;
22318;SDS011;11327;52.334;9.506;2023-04-24T03:07:42;1.67;;;0.90;;
22318;SDS011;11327;52.334;9.506;2023-04-24T03:11:03;1.27;;;0.70;;
22318;SDS011;11327;52.334;9.506;2023-04-24T03:14:24;1.32;;;0.80;;
22318;SDS011;11327;52.334;9.506;2023-04-24T03:17:45;1.55;;;0.90;;
22318;SDS011;11327;52.334;9.506;2023-04-24T03:21:06;2.05;;;0.80;;
22318;SDS011;11327;52.334;9.506;2023-04-24T03:24:26;1.85;;;0.75;;
22318;SDS011;11327;52.334;9.506;2023-04-24T03:27:48;1.85;;;0.80;;
22318;SDS011;11327;52.334;9.506;2023-04-24T03:31:09;1.12;;;0.70;;
22318;SDS011;11327;52.334;9.506;2023-04-24T03:34:30;1.17;;;0.80;;
22318;SDS011;11327;52.334;9.506;2023-04-24T03:37:51;0.80;;;0.70;;
22318;SDS011;11327;52.334;9.506;2023-04-24T03:41:12;0.90;;;0.68;;
22318;SDS011;11327;52.334;9.506;2023-04-24T03:44:32;1.17;;;0.80;;
22318;SDS011;11327;52.334;9.506;2023-04-24T03:47:53;1.00;;;0.80;;
22318;SDS011;11327;52.334;9.506;2023-04-24T03:51:14;0.95;;;0.70;;
22318;SDS011;11327;52.334;9.506;2023-04-24T03:54:34;1.05;;;0.70;;
22318;SDS011;11327;52.334;9.506;2023-04-24T03:57:55;1.32;;;0.60;;
22318;SDS011;11327;52.334;9.506;2023-04-24T04:01:16;1.00;;;0.62;;
22318;SDS011;11327;52.334;9.506;2023-04-24T04:04:36;1.02;;;0.80;;
22318;SDS011;11327;52.334;9.506;2023-04-24T04:07:57;1.40;;;0.70;;
22318;SDS011;11327;52.334;9.506;2023-04-24T04:11:18;0.90;;;0.80;;
22318;SDS011;11327;52.334;9.506;2023-04-24T04:14:39;0.62;;;0.60;;
22318;SDS011;11327;52.334;9.506;2023-04-24T04:18:00;1.52;;;0.75;;
22318;SDS011;11327;52.334;9.506;2023-04-24T04:21:21;0.70;;;0.53;;
22318;SDS011;11327;52.334;9.506;2023-04-24T04:24:41;1.20;;;0.78;;
22318;SDS011;11327;52.334;9.506;2023-04-24T04:28:03;1.70;;;0.72;;
22318;SDS011;11327;52.334;9.506;2023-04-24T04:31:24;1.10;;;0.78;;
22318;SDS011;11327;52.334;9.506;2023-04-24T04:34:45;1.20;;;0.90;;
22318;SDS011;11327;52.334;9.506;2023-04-24T04:38:05;1.25;;;0.70;;
22318;SDS011;11327;52.334;9.506;2023-04-24T04:41:28;0.95;;;0.70;;
22318;SDS011;11327;52.334;9.506;2023-04-24T04:44:49;0.88;;;0.72;;
22318;SDS011;11327;52.334;9.506;2023-04-24T04:48:10;1.30;;;0.60;;
22318;SDS011;11327;52.334;9.506;2023-04-24T04:51:33;1.32;;;0.80;;
22318;SDS011;11327;52.334;9.506;2023-04-24T04:54:54;1.40;;;0.90;;
22318;SDS011;11327;52.334;9.506;2023-04-24T04:58:15;1.22;;;0.85;;
22318;SDS011;11327;52.334;9.506;2023-04-24T05:01:35;1.22;;;0.80;;
22318;SDS011;11327;52.334;9.506;2023-04-24T05:04:56;1.30;;;0.78;;
22318;SDS011;11327;52.334;9.506;2023-04-24T05:08:17;0.93;;;0.60;;
22318;SDS011;11327;52.334;9.506;2023-04-24T05:11:38;1.37;;;0.93;;
22318;SDS011;11327;52.334;9.506;2023-04-24T05:14:59;1.70;;;0.90;;
22318;SDS011;11327;52.334;9.506;2023-04-24T05:18:19;1.17;;;0.80;;
22318;SDS011;11327;52.334;9.506;2023-04-24T05:21:41;1.25;;;0.78;;
22318;SDS011;11327;52.334;9.506;2023-04-24T05:25:02;1.52;;;0.80;;
22318;SDS011;11327;52.334;9.506;2023-04-24T05:28:23;1.15;;;0.70;;
22318;SDS011;11327;52.334;9.506;2023-04-24T05:31:43;2.00;;;1.12;;
22318;SDS011;11327;52.334;9.506;2023-04-24T05:35:04;1.57;;;1.27;;
22318;SDS011;11327;52.334;9.506;2023-04-24T05:38:25;1.35;;;1.00;;
22318;SDS011;11327;52.334;9.506;2023-04-24T05:41:46;1.57;;;1.00;;
22318;SDS011;11327;52.334;9.506;2023-04-24T05:45:07;1.87;;;1.10;;
22318;SDS011;11327;52.334;9.506;2023-04-24T05:48:29;2.20;;;1.20;;
22318;SDS011;11327;52.334;9.506;2023-04-24T05:51:51;1.62;;;1.20;;
22318;SDS011;11327;52.334;9.506;2023-04-24T05:55:11;2.58;;;1.55;;
22318;SDS011;11327;52.334;9.506;2023-04-24T05:58:32;1.40;;;1.30;;
22318;SDS011;11327;52.334;9.506;2023-04-24T06:01:53;4.47;;;2.00;;
22318;SDS011;11327;52.334;9.506;2023-04-24T06:05:14;4.30;;;1.70;;
22318;SDS011;11327;52.334;9.506;2023-04-24T06:08:35;2.85;;;1.98;;
22318;SDS011;11327;52.334;9.506;2023-04-24T06:11:56;3.42;;;2.20;;
22318;SDS011;11327;52.334;9.506;2023-04-24T06:15:16;4.70;;;2.95;;
22318;SDS011;11327;52.334;9.506;2023-04-24T06:18:37;3.00;;;2.62;;
22318;SDS011;11327;52.334;9.506;2023-04-24T06:21:58;4.30;;;2.92;;
22318;SDS011;11327;52.334;9.506;2023-04-24T06:25:19;3.90;;;3.30;;
22318;SDS011;11327;52.334;9.506;2023-04-24T06:28:40;4.53;;;4.08;;
22318;SDS011;11327;52.334;9.506;2023-04-24T06:32:00;4.72;;;4.25;;
22318;SDS011;11327;52.334;9.506;2023-04-24T06:35:21;5.95;;;4.40;;
22318;SDS011;11327;52.334;9.506;2023-04-24T06:38:42;5.40;;;4.80;;
22318;SDS011;11327;52.334;9.506;2023-04-24T06:42:02;5.03;;;4.53;;
22318;SDS011;11327;52.334;9.506;2023-04-24T06:45:23;8.28;;;6.25;;
22318;SDS011;11327;52.334;9.506;2023-04-24T06:48:44;5.87;;;5.28;;
22318;SDS011;11327;52.334;9.506;2023-04-24T06:52:05;6.42;;;5.78;;
22318;SDS011;11327;52.334;9.506;2023-04-24T06:55:26;6.60;;;5.90;;
22318;SDS011;11327;52.334;9.506;2023-04-24T06:58:47;6.45;;;5.33;;
22318;SDS011;11327;52.334;9.506;2023-04-24T07:02:08;7.78;;;5.83;;
22318;SDS011;11327;52.334;9.506;2023-04-24T07:05:29;7.72;;;6.03;;
22318;SDS011;11327;52.334;9.506;2023-04-24T07:08:50;7.65;;;5.92;;
22318;SDS011;11327;52.334;9.506;2023-04-24T07:12:10;7.58;;;5.80;;
22318;SDS011;11327;52.334;9.506;2023-04-24T07:15:32;7.35;;;6.20;;
22318;SDS011;11327;52.334;9.506;2023-04-24T07:18:53;7.35;;;6.05;;
22318;SDS011;11327;52.334;9.506;2023-04-24T07:22:13;7.78;;;6.20;;
22318;SDS011;11327;52.334;9.506;2023-04-24T07:25:36;9.10;;;6.70;;
22318;SDS011;11327;52.334;9.506;2023-04-24T07:28:57;9.93;;;6.92;;
22318;SDS011;11327;52.334;9.506;2023-04-24T07:32:17;8.80;;;7.30;;
22318;SDS011;11327;52.334;9.506;2023-04-24T07:35:38;9.95;;;8.25;;
22318;SDS011;11327;52.334;9.506;2023-04-24T07:38:59;10.58;;;8.45;;
22318;SDS011;11327;52.334;9.506;2023-04-24T07:42:20;10.53;;;8.35;;
22318;SDS011;11327;52.334;9.506;2023-04-24T07:45:40;11.65;;;9.05;;
22318;SDS011;11327;52.334;9.506;2023-04-24T07:49:01;12.00;;;9.18;;
22318;SDS011;11327;52.334;9.506;2023-04-24T07:52:22;11.88;;;9.60;;
22318;SDS011;11327;52.334;9.506;2023-04-24T07:55:43;10.05;;;8.40;;
22318;SDS011;11327;52.334;9.506;2023-04-24T07:59:05;12.13;;;9.28;;
22318;SDS011;11327;52.334;9.506;2023-04-24T08:02:25;14.28;;;9.68;;
22318;SDS011;11327;52.334;9.506;2023-04-24T08:05:47;12.58;;;9.98;;
22318;SDS011;11327;52.334;9.506;2023-04-24T08:09:07;13.53;;;10.38;;
22318;SDS011;11327;52.334;9.506;2023-04-24T08:12:28;10.88;;;9.10;;
22318;SDS011;11327;52.334;9.506;2023-04-24T08:15:49;12.40;;;9.48;;
22318;SDS011;11327;52.334;9.506;2023-04-24T08:19:10;12.28;;;9.63;;
22318;SDS011;11327;52.334;9.506;2023-04-24T08:22:31;10.80;;;8.70;;
22318;SDS011;11327;52.334;9.506;2023-04-24T08:25:52;10.08;;;8.15;;
22318;SDS011;11327;52.334;9.506;2023-04-24T08:29:12;12.00;;;8.48;;
22318;SDS011;11327;52.334;9.506;2023-04-24T08:32:33;9.40;;;7.55;;
22318;SDS011;11327;52.334;9.506;2023-04-24T08:35:54;11.20;;;8.23;;
22318;SDS011;11327;52.334;9.506;2023-04-24T08:39:14;8.85;;;7.28;;
22318;SDS011;11327;52.334;9.506;2023-04-24T08:42:37;8.55;;;7.42;;
22318;SDS011;11327;52.334;9.506;2023-04-24T08:46:00;9.88;;;6.95;;
22318;SDS011;11327;52.334;9.506;2023-04-24T08:49:20;9.18;;;7.40;;
22318;SDS011;11327;52.334;9.506;2023-04-24T08:52:43;7.67;;;6.87;;
22318;SDS011;11327;52.334;9.506;2023-04-24T08:56:04;8.23;;;7.10;;
22318;SDS011;11327;52.334;9.506;2023-04-24T08:59:25;7.85;;;6.35;;
22318;SDS011;11327;52.334;9.506;2023-04-24T09:02:47;8.78;;;6.22;;
22318;SDS011;11327;52.334;9.506;2023-04-24T09:06:09;8.13;;;6.35;;
22318;SDS011;11327;52.334;9.506;2023-04-24T09:09:32;7.50;;;5.83;;
22318;SDS011;11327;52.334;9.506;2023-04-24T09:12:53;6.85;;;5.83;;
22318;SDS011;11327;52.334;9.506;2023-04-24T09:16:15;8.55;;;5.53;;
22318;SDS011;11327;52.334;9.506;2023-04-24T09:19:36;7.47;;;5.30;;
22318;SDS011;11327;52.334;9.506;2023-04-24T09:22:57;6.05;;;5.42;;
22318;SDS011;11327;52.334;9.506;2023-04-24T09:26:18;5.53;;;5.00;;
22318;SDS011;11327;52.334;9.506;2023-04-24T09:29:54;8.60;;;5.55;;
22318;SDS011;11327;52.334;9.506;2023-04-24T09:33:17;7.05;;;5.60;;
22318;SDS011;11327;52.334;9.506;2023-04-24T09:36:39;6.10;;;5.20;;
22318;SDS011;11327;52.334;9.506;2023-04-24T09:40:08;6.62;;;5.70;;
22318;SDS011;11327;52.334;9.506;2023-04-24T09:43:33;6.75;;;5.22;;
22318;SDS011;11327;52.334;9.506;2023-04-24T09:46:55;6.25;;;5.30;;
22318;SDS011;11327;52.334;9.506;2023-04-24T09:50:17;5.40;;;4.72;;
22318;SDS011;11327;52.334;9.506;2023-04-24T09:53:38;5.08;;;4.58;;
22318;SDS011;11327;52.334;9.506;2023-04-24T09:57:02;5.08;;;4.53;;
22318;SDS011;11327;52.334;9.506;2023-04-24T10:00:24;5.05;;;4.55;;
22318;SDS011;11327;52.334;9.506;2023-04-24T10:03:46;4.60;;;4.17;;
22318;SDS011;11327;52.334;9.506;2023-04-24T10:07:07;4.28;;;3.87;;
22318;SDS011;11327;52.334;9.506;2023-04-24T10:10:30;4.47;;;3.90;;
22318;SDS011;11327;52.334;9.506;2023-04-24T10:13:53;4.85;;;4.00;;
22318;SDS011;11327;52.334;9.506;2023-04-24T10:17:13;4.10;;;3.70;;
22318;SDS011;11327;52.334;9.506;2023-04-24T10:20:36;3.87;;;3.15;;
22318;SDS011;11327;52.334;9.506;2023-04-24T10:23:59;4.53;;;3.00;;
22318;SDS011;11327;52.334;9.506;2023-04-24T10:27:22;4.15;;;2.67;;
22318;SDS011;11327;52.334;9.506;2023-04-24T10:30:43;3.42;;;2.65;;
22318;SDS011;11327;52.334;9.506;2023-04-24T10:34:06;3.17;;;2.60;;
22318;SDS011;11327;52.334;9.506;2023-04-24T10:37:27;4.62;;;2.87;;
22318;SDS011;11327;52.334;9.506;2023-04-24T10:40:49;2.20;;;2.00;;
22318;SDS011;11327;52.334;9.506;2023-04-24T10:44:13;3.10;;;2.02;;
22318;SDS011;11327;52.334;9.506;2023-04-24T10:47:41;2.80;;;2.27;;
22318;SDS011;11327;52.334;9.506;2023-04-24T10:51:02;2.60;;;2.20;;
22318;SDS011;11327;52.334;9.506;2023-04-24T10:58:02;2.50;;;2.00;;
22318;SDS011;11327;52.334;9.506;2023-04-24T11:01:25;3.75;;;1.90;;
22318;SDS011;11327;52.334;9.506;2023-04-24T11:04:53;2.62;;;2.15;;
22318;SDS011;11327;52.334;9.506;2023-04-24T11:08:15;2.77;;;2.37;;
22318;SDS011;11327;52.334;9.506;2023-04-24T11:11:38;4.25;;;2.58;;
22318;SDS011;11327;52.334;9.506;2023-04-24T11:15:02;4.03;;;3.62;;
22318;SDS011;11327;52.334;9.506;2023-04-24T11:18:23;3.70;;;2.58;;
22318;SDS011;11327;52.334;9.506;2023-04-24T11:21:47;2.92;;;2.35;;
22318;SDS011;11327;52.334;9.506;2023-04-24T11:25:11;2.40;;;2.10;;
22318;SDS011;11327;52.334;9.506;2023-04-24T11:28:32;2.30;;;2.10;;
22318;SDS011;11327;52.334;9.506;2023-04-24T11:31:53;2.40;;;1.65;;
22318;SDS011;11327;52.334;9.506;2023-04-24T11:35:18;3.60;;;1.52;;
22318;SDS011;11327;52.334;9.506;2023-04-24T11:38:41;3.27;;;1.75;;
22318;SDS011;11327;52.334;9.506;2023-04-24T11:42:02;1.72;;;1.32;;
22318;SDS011;11327;52.334;9.506;2023-04-24T11:45:25;3.65;;;1.40;;
22318;SDS011;11327;52.334;9.506;2023-04-24T11:48:47;1.62;;;1.45;;
22318;SDS011;11327;52.334;9.506;2023-04-24T11:52:08;1.35;;;1.25;;
22318;SDS011;11327;52.334;9.506;2023-04-24T11:55:31;2.27;;;1.30;;
22318;SDS011;11327;52.334;9.506;2023-04-24T11:58:52;1.62;;;1.52;;
22318;SDS011;11327;52.334;9.506;2023-04-24T12:02:25;1.70;;;1.60;;
22318;SDS011;11327;52.334;9.506;2023-04-24T12:05:43;1.62;;;1.40;;
22318;SDS011;11327;52.334;9.506;2023-04-24T12:09:05;1.72;;;1.62;;
22318;SDS011;11327;52.334;9.506;2023-04-24T12:12:27;3.22;;;1.47;;
22318;SDS011;11327;52.334;9.506;2023-04-24T12:15:49;1.55;;;1.45;;
22318;SDS011;11327;52.334;9.506;2023-04-24T12:19:10;1.60;;;1.50;;
22318;SDS011;11327;52.334;9.506;2023-04-24T12:26:10;2.83;;;2.00;;
22318;SDS011;11327;52.334;9.506;2023-04-24T12:29:32;2.52;;;2.00;;
22318;SDS011;11327;52.334;9.506;2023-04-24T12:32:52;2.52;;;1.80;;
22318;SDS011;11327;52.334;9.506;2023-04-24T12:40:02;2.17;;;1.70;;
22318;SDS011;11327;52.334;9.506;2023-04-24T12:43:27;3.00;;;1.70;;
22318;SDS011;11327;52.334;9.506;2023-04-24T12:46:48;1.95;;;1.80;;
22318;SDS011;11327;52.334;9.506;2023-04-24T12:50:09;2.17;;;1.98;;
22318;SDS011;11327;52.334;9.506;2023-04-24T12:53:30;2.17;;;1.98;;
22318;SDS011;11327;52.334;9.506;2023-04-24T12:56:51;2.40;;;2.20;;
22318;SDS011;11327;52.334;9.506;2023-04-24T13:00:12;2.95;;;2.10;;
22318;SDS011;11327;52.334;9.506;2023-04-24T13:03:33;3.08;;;1.82;;
22318;SDS011;11327;52.334;9.506;2023-04-24T13:06:54;2.65;;;2.33;;
22318;SDS011;11327;52.334;9.506;2023-04-24T13:10:15;2.40;;;2.20;;
22318;SDS011;11327;52.334;9.506;2023-04-24T13:13:35;2.10;;;1.87;;
22318;SDS011;11327;52.334;9.506;2023-04-24T13:16:56;1.90;;;1.70;;
22318;SDS011;11327;52.334;9.506;2023-04-24T13:20:17;1.67;;;1.50;;
22318;SDS011;11327;52.334;9.506;2023-04-24T13:23:38;1.32;;;1.20;;
22318;SDS011;11327;52.334;9.506;2023-04-24T13:26:59;1.30;;;1.20;;
22318;SDS011;11327;52.334;9.506;2023-04-24T13:30:21;0.90;;;0.70;;
22318;SDS011;11327;52.334;9.506;2023-04-24T13:33:41;1.25;;;0.50;;
22318;SDS011;11327;52.334;9.506;2023-04-24T13:37:02;0.53;;;0.42;;
22318;SDS011;11327;52.334;9.506;2023-04-24T13:40:24;0.70;;;0.33;;
22318;SDS011;11327;52.334;9.506;2023-04-24T13:43:45;0.55;;;0.50;;
22318;SDS011;11327;52.334;9.506;2023-04-24T13:47:05;0.70;;;0.60;;
22318;SDS011;11327;52.334;9.506;2023-04-24T13:50:26;2.17;;;0.90;;
22318;SDS011;11327;52.334;9.506;2023-04-24T13:53:47;1.25;;;0.85;;
22318;SDS011;11327;52.334;9.506;2023-04-24T13:57:07;1.60;;;1.20;;
22318;SDS011;11327;52.334;9.506;2023-04-24T14:00:28;2.08;;;1.50;;
22318;SDS011;11327;52.334;9.506;2023-04-24T14:03:49;3.08;;;1.80;;
22318;SDS011;11327;52.334;9.506;2023-04-24T14:07:10;1.95;;;1.55;;
22318;SDS011;11327;52.334;9.506;2023-04-24T14:10:31;2.50;;;1.65;;
22318;SDS011;11327;52.334;9.506;2023-04-24T14:13:52;2.52;;;1.75;;
22318;SDS011;11327;52.334;9.506;2023-04-24T14:17:15;2.90;;;2.35;;
22318;SDS011;11327;52.334;9.506;2023-04-24T14:20:36;3.15;;;2.20;;
22318;SDS011;11327;52.334;9.506;2023-04-24T14:23:57;4.08;;;2.72;;
22318;SDS011;11327;52.334;9.506;2023-04-24T14:27:19;5.53;;;3.20;;
22318;SDS011;11327;52.334;9.506;2023-04-24T14:30:40;4.62;;;2.90;;
22318;SDS011;11327;52.334;9.506;2023-04-24T14:34:01;5.53;;;3.45;;
22318;SDS011;11327;52.334;9.506;2023-04-24T14:37:21;5.42;;;3.55;;
22318;SDS011;11327;52.334;9.506;2023-04-24T14:40:42;6.42;;;3.25;;
22318;SDS011;11327;52.334;9.506;2023-04-24T14:44:03;7.17;;;4.25;;
22318;SDS011;11327;52.334;9.506;2023-04-24T14:47:25;5.72;;;4.05;;
22318;SDS011;11327;52.334;9.506;2023-04-24T14:50:45;6.45;;;4.00;;
22318;SDS011;11327;52.334;9.506;2023-04-24T14:54:06;8.70;;;4.72;;
22318;SDS011;11327;52.334;9.506;2023-04-24T14:57:27;9.25;;;5.40;;
22318;SDS011;11327;52.334;9.506;2023-04-24T15:00:48;8.65;;;5.47;;
22318;SDS011;11327;52.334;9.506;2023-04-24T15:04:10;8.55;;;4.92;;
22318;SDS011;11327;52.334;9.506;2023-04-24T15:07:31;6.87;;;4.20;;
22318;SDS011;11327;52.334;9.506;2023-04-24T15:10:52;6.58;;;4.12;;
22318;SDS011;11327;52.334;9.506;2023-04-24T15:14:13;8.30;;;4.97;;
22318;SDS011;11327;52.334;9.506;2023-04-24T15:21:15;8.15;;;4.83;;
22318;SDS011;11327;52.334;9.506;2023-04-24T15:24:36;8.03;;;4.53;;
22318;SDS011;11327;52.334;9.506;2023-04-24T15:27:57;9.78;;;5.30;;
22318;SDS011;11327;52.334;9.506;2023-04-24T15:31:19;6.53;;;4.40;;
22318;SDS011;11327;52.334;9.506;2023-04-24T15:34:40;8.73;;;5.08;;
22318;SDS011;11327;52.334;9.506;2023-04-24T15:38:01;9.05;;;5.22;;
22318;SDS011;11327;52.334;9.506;2023-04-24T15:41:22;8.83;;;4.90;;
22318;SDS011;11327;52.334;9.506;2023-04-24T15:44:43;9.38;;;4.87;;
22318;SDS011;11327;52.334;9.506;2023-04-24T15:48:04;8.45;;;5.92;;
22318;SDS011;11327;52.334;9.506;2023-04-24T15:51:25;11.12;;;5.70;;
22318;SDS011;11327;52.334;9.506;2023-04-24T15:54:46;9.78;;;6.05;;
22318;SDS011;11327;52.334;9.506;2023-04-24T15:58:07;8.60;;;5.28;;
22318;SDS011;11327;52.334;9.506;2023-04-24T16:01:28;9.15;;;5.20;;
22318;SDS011;11327;52.334;9.506;2023-04-24T16:04:50;8.13;;;5.33;;
22318;SDS011;11327;52.334;9.506;2023-04-24T16:08:12;7.53;;;4.90;;
22318;SDS011;11327;52.334;9.506;2023-04-24T16:11:34;7.60;;;5.00;;
22318;SDS011;11327;52.334;9.506;2023-04-24T16:14:59;8.53;;;4.85;;
22318;SDS011;11327;52.334;9.506;2023-04-24T16:18:20;9.78;;;4.90;;
22318;SDS011;11327;52.334;9.506;2023-04-24T16:21:41;8.23;;;5.80;;
22318;SDS011;11327;52.334;9.506;2023-04-24T16:25:02;8.50;;;4.90;;
22318;SDS011;11327;52.334;9.506;2023-04-24T16:28:23;6.55;;;4.53;;
22318;SDS011;11327;52.334;9.506;2023-04-24T16:31:46;7.75;;;4.47;;
22318;SDS011;11327;52.334;9.506;2023-04-24T16:35:07;5.95;;;4.42;;
22318;SDS011;11327;52.334;9.506;2023-04-24T16:38:28;6.97;;;4.70;;
22318;SDS011;11327;52.334;9.506;2023-04-24T16:41:49;8.75;;;4.33;;
22318;SDS011;11327;52.334;9.506;2023-04-24T16:45:09;5.12;;;3.65;;
22318;SDS011;11327;52.334;9.506;2023-04-24T16:48:31;7.40;;;4.10;;
22318;SDS011;11327;52.334;9.506;2023-04-24T16:51:52;5.95;;;3.75;;
22318;SDS011;11327;52.334;9.506;2023-04-24T16:55:13;6.08;;;3.90;;
22318;SDS011;11327;52.334;9.506;2023-04-24T16:58:34;6.40;;;3.75;;
22318;SDS011;11327;52.334;9.506;2023-04-24T17:01:55;7.50;;;4.20;;
22318;SDS011;11327;52.334;9.506;2023-04-24T17:05:16;6.83;;;4.65;;
22318;SDS011;11327;52.334;9.506;2023-04-24T17:08:38;5.80;;;3.85;;
22318;SDS011;11327;52.334;9.506;2023-04-24T17:11:59;7.83;;;4.05;;
22318;SDS011;11327;52.334;9.506;2023-04-24T17:15:21;5.85;;;3.85;;
22318;SDS011;11327;52.334;9.506;2023-04-24T17:18:42;9.05;;;5.28;;
22318;SDS011;11327;52.334;9.506;2023-04-24T17:22:03;7.00;;;4.87;;
22318;SDS011;11327;52.334;9.506;2023-04-24T17:25:23;7.28;;;5.05;;
22318;SDS011;11327;52.334;9.506;2023-04-24T17:28:44;7.35;;;4.55;;
22318;SDS011;11327;52.334;9.506;2023-04-24T17:32:05;8.30;;;4.62;;
22318;SDS011;11327;52.334;9.506;2023-04-24T17:35:25;5.20;;;4.10;;
22318;SDS011;11327;52.334;9.506;2023-04-24T17:38:47;6.12;;;3.35;;
22318;SDS011;11327;52.334;9.506;2023-04-24T17:42:12;5.03;;;3.22;;
22318;SDS011;11327;52.334;9.506;2023-04-24T17:45:30;6.90;;;3.80;;
22318;SDS011;11327;52.334;9.506;2023-04-24T17:48:51;5.45;;;3.60;;
22318;SDS011;11327;52.334;9.506;2023-04-24T17:52:12;7.05;;;3.02;;
22318;SDS011;11327;52.334;9.506;2023-04-24T17:55:33;4.53;;;2.90;;
22318;SDS011;11327;52.334;9.506;2023-04-24T17:58:54;4.83;;;3.40;;
22318;SDS011;11327;52.334;9.506;2023-04-24T18:02:15;4.35;;;2.98;;
22318;SDS011;11327;52.334;9.506;2023-04-24T18:05:36;6.90;;;3.55;;
22318;SDS011;11327;52.334;9.506;2023-04-24T18:08:58;8.53;;;3.70;;
22318;SDS011;11327;52.334;9.506;2023-04-24T18:12:19;5.30;;;3.10;;
22318;SDS011;11327;52.334;9.506;2023-04-24T18:15:39;6.25;;;2.80;;
22318;SDS011;11327;52.334;9.506;2023-04-24T18:19:03;4.45;;;3.17;;
22318;SDS011;11327;52.334;9.506;2023-04-24T18:22:23;9.00;;;3.27;;
22318;SDS011;11327;52.334;9.506;2023-04-24T18:25:44;4.72;;;2.90;;
22318;SDS011;11327;52.334;9.506;2023-04-24T18:29:05;4.30;;;2.77;;
22318;SDS011;11327;52.334;9.506;2023-04-24T18:32:26;4.30;;;2.47;;
22318;SDS011;11327;52.334;9.506;2023-04-24T18:35:47;4.95;;;2.58;;
22318;SDS011;11327;52.334;9.506;2023-04-24T18:39:07;3.90;;;2.45;;
22318;SDS011;11327;52.334;9.506;2023-04-24T18:42:28;5.17;;;2.70;;
22318;SDS011;11327;52.334;9.506;2023-04-24T18:45:49;4.17;;;2.60;;
22318;SDS011;11327;52.334;9.506;2023-04-24T18:49:09;4.62;;;2.47;;
22318;SDS011;11327;52.334;9.506;2023-04-24T18:52:30;4.87;;;2.60;;
22318;SDS011;11327;52.334;9.506;2023-04-24T18:55:51;3.33;;;2.33;;
22318;SDS011;11327;52.334;9.506;2023-04-24T18:59:12;4.47;;;2.50;;
22318;SDS011;11327;52.334;9.506;2023-04-24T19:02:32;4.75;;;2.62;;
22318;SDS011;11327;52.334;9.506;2023-04-24T19:05:53;5.67;;;2.58;;
22318;SDS011;11327;52.334;9.506;2023-04-24T19:09:14;5.03;;;2.75;;
22318;SDS011;11327;52.334;9.506;2023-04-24T19:12:35;5.97;;;3.10;;
22318;SDS011;11327;52.334;9.506;2023-04-24T19:15:56;5.72;;;3.22;;
22318;SDS011;11327;52.334;9.506;2023-04-24T19:19:16;7.08;;;3.85;;
22318;SDS011;11327;52.334;9.506;2023-04-24T19:22:37;6.42;;;3.42;;
22318;SDS011;11327;52.334;9.506;2023-04-24T19:25:58;6.97;;;3.60;;
22318;SDS011;11327;52.334;9.506;2023-04-24T19:29:18;6.05;;;3.62;;
22318;SDS011;11327;52.334;9.506;2023-04-24T19:32:39;8.53;;;4.70;;
22318;SDS011;11327;52.334;9.506;2023-04-24T19:36:00;5.95;;;3.45;;
22318;SDS011;11327;52.334;9.506;2023-04-24T19:39:20;9.13;;;4.22;;
22318;SDS011;11327;52.334;9.506;2023-04-24T19:42:42;8.00;;;3.83;;
22318;SDS011;11327;52.334;9.506;2023-04-24T19:46:03;5.53;;;3.00;;
22318;SDS011;11327;52.334;9.506;2023-04-24T19:49:24;7.58;;;3.58;;
22318;SDS011;11327;52.334;9.506;2023-04-24T19:52:45;7.03;;;3.35;;
22318;SDS011;11327;52.334;9.506;2023-04-24T19:56:05;9.85;;;3.55;;
22318;SDS011;11327;52.334;9.506;2023-04-24T19:59:26;9.40;;;3.85;;
22318;SDS011;11327;52.334;9.506;2023-04-24T20:02:47;6.55;;;3.30;;
22318;SDS011;11327;52.334;9.506;2023-04-24T20:06:07;6.72;;;3.60;;
22318;SDS011;11327;52.334;9.506;2023-04-24T20:09:28;5.55;;;3.25;;
22318;SDS011;11327;52.334;9.506;2023-04-24T20:12:49;8.38;;;3.92;;
22318;SDS011;11327;52.334;9.506;2023-04-24T20:16:10;8.40;;;5.15;;
22318;SDS011;11327;52.334;9.506;2023-04-24T20:19:31;8.93;;;5.85;;
22318;SDS011;11327;52.334;9.506;2023-04-24T20:22:51;6.75;;;4.05;;
22318;SDS011;11327;52.334;9.506;2023-04-24T20:26:12;9.90;;;5.22;;
22318;SDS011;11327;52.334;9.506;2023-04-24T20:29:33;8.35;;;4.25;;